sensor_id;sensor_type;location;lat;lon;timestamp;temperature;humidity
10314;DHT22;5202;49.138;10.090;2024-03-07T00:00:34;3.50;99.90
10314;DHT22;5202;49.138;10.090;2024-03-07T00:03:03;3.50;99.90
10314;DHT22;5202;49.138;10.090;2024-03-07T00:05:32;3.50;99.90
10314;DHT22;5202;49.138;10.090;2024-03-07T00:08:02;3.50;99.90
10314;DHT22;5202;49.138;10.090;2024-03-07T00:10:30;3.40;99.90
10314;DHT22;5202;49.138;10.090;2024-03-07T00:12:59;3.40;99.90
10314;DHT22;5202;49.138;10.090;2024-03-07T00:15:27;3.50;99.90
10314;DHT22;5202;49.138;10.090;2024-03-07T00:17:57;3.40;99.90
10314;DHT22;5202;49.138;10.090;2024-03-07T00:20:25;3.40;99.90
10314;DHT22;5202;49.138;10.090;2024-03-07T00:22:54;3.40;99.90
10314;DHT22;5202;49.138;10.090;2024-03-07T00:25:24;3.50;99.90
10314;DHT22;5202;49.138;10.090;2024-03-07T00:27:53;3.40;99.90
10314;DHT22;5202;49.138;10.090;2024-03-07T00:30:24;3.40;99.90
10314;DHT22;5202;49.138;10.090;2024-03-07T00:32:52;3.40;99.90
10314;DHT22;5202;49.138;10.090;2024-03-07T00:35:21;3.40;99.90
10314;DHT22;5202;49.138;10.090;2024-03-07T00:37:50;3.40;99.90
10314;DHT22;5202;49.138;10.090;2024-03-07T00:40:18;3.40;99.90
10314;DHT22;5202;49.138;10.090;2024-03-07T00:42:48;3.40;99.90
10314;DHT22;5202;49.138;10.090;2024-03-07T00:45:17;3.30;99.90
10314;DHT22;5202;49.138;10.090;2024-03-07T00:47:46;3.30;99.90
10314;DHT22;5202;49.138;10.090;2024-03-07T00:50:15;3.20;99.90
10314;DHT22;5202;49.138;10.090;2024-03-07T00:52:44;3.20;99.90
10314;DHT22;5202;49.138;10.090;2024-03-07T00:55:12;3.10;99.90
10314;DHT22;5202;49.138;10.090;2024-03-07T00:57:41;3.10;99.90
10314;DHT22;5202;49.138;10.090;2024-03-07T01:00:12;3.00;99.90
10314;DHT22;5202;49.138;10.090;2024-03-07T01:02:41;3.00;99.90
10314;DHT22;5202;49.138;10.090;2024-03-07T01:05:11;3.00;99.90
10314;DHT22;5202;49.138;10.090;2024-03-07T01:07:41;2.90;99.90
10314;DHT22;5202;49.138;10.090;2024-03-07T01:10:10;2.90;99.90
10314;DHT22;5202;49.138;10.090;2024-03-07T01:12:38;2.80;99.90
10314;DHT22;5202;49.138;10.090;2024-03-07T01:15:07;2.80;99.90
10314;DHT22;5202;49.138;10.090;2024-03-07T01:17:40;2.80;99.90
10314;DHT22;5202;49.138;10.090;2024-03-07T01:20:09;2.90;99.90
10314;DHT22;5202;49.138;10.090;2024-03-07T01:22:39;2.80;99.90
10314;DHT22;5202;49.138;10.090;2024-03-07T01:25:07;2.80;99.90
10314;DHT22;5202;49.138;10.090;2024-03-07T01:27:36;2.80;99.90
10314;DHT22;5202;49.138;10.090;2024-03-07T01:30:05;2.80;99.90
10314;DHT22;5202;49.138;10.090;2024-03-07T01:32:35;2.70;99.90
10314;DHT22;5202;49.138;10.090;2024-03-07T01:35:06;2.80;99.90
10314;DHT22;5202;49.138;10.090;2024-03-07T01:37:35;2.80;99.90
10314;DHT22;5202;49.138;10.090;2024-03-07T01:40:04;2.70;99.90
10314;DHT22;5202;49.138;10.090;2024-03-07T01:42:33;2.70;99.90
10314;DHT22;5202;49.138;10.090;2024-03-07T01:45:03;2.60;99.90
10314;DHT22;5202;49.138;10.090;2024-03-07T01:47:32;2.60;99.90
10314;DHT22;5202;49.138;10.090;2024-03-07T01:50:00;2.50;99.90
10314;DHT22;5202;49.138;10.090;2024-03-07T01:52:31;2.40;99.90
10314;DHT22;5202;49.138;10.090;2024-03-07T01:55:00;2.30;99.90
10314;DHT22;5202;49.138;10.090;2024-03-07T01:57:30;2.30;99.90
10314;DHT22;5202;49.138;10.090;2024-03-07T01:59:59;2.20;99.90
10314;DHT22;5202;49.138;10.090;2024-03-07T02:02:32;2.20;99.90
10314;DHT22;5202;49.138;10.090;2024-03-07T02:05:02;2.20;99.90
10314;DHT22;5202;49.138;10.090;2024-03-07T02:07:32;2.10;99.90
10314;DHT22;5202;49.138;10.090;2024-03-07T02:10:01;2.10;99.90
10314;DHT22;5202;49.138;10.090;2024-03-07T02:12:31;2.10;99.90
10314;DHT22;5202;49.138;10.090;2024-03-07T02:14:59;2.10;99.90
10314;DHT22;5202;49.138;10.090;2024-03-07T02:17:28;2.10;99.90
10314;DHT22;5202;49.138;10.090;2024-03-07T02:19:57;2.10;99.90
10314;DHT22;5202;49.138;10.090;2024-03-07T02:22:27;2.10;99.90
10314;DHT22;5202;49.138;10.090;2024-03-07T02:24:55;2.10;99.90
10314;DHT22;5202;49.138;10.090;2024-03-07T02:27:24;2.10;99.90
10314;DHT22;5202;49.138;10.090;2024-03-07T02:29:52;2.10;99.90
10314;DHT22;5202;49.138;10.090;2024-03-07T02:32:21;2.10;99.90
10314;DHT22;5202;49.138;10.090;2024-03-07T02:34:50;2.10;99.90
10314;DHT22;5202;49.138;10.090;2024-03-07T02:37:18;2.10;99.90
10314;DHT22;5202;49.138;10.090;2024-03-07T02:39:48;2.10;99.90
10314;DHT22;5202;49.138;10.090;2024-03-07T02:42:16;2.00;99.90
10314;DHT22;5202;49.138;10.090;2024-03-07T02:44:45;1.90;99.90
10314;DHT22;5202;49.138;10.090;2024-03-07T02:47:14;1.80;99.90
10314;DHT22;5202;49.138;10.090;2024-03-07T02:49:42;1.80;99.90
10314;DHT22;5202;49.138;10.090;2024-03-07T02:52:11;1.70;99.90
10314;DHT22;5202;49.138;10.090;2024-03-07T02:54:39;1.70;99.90
10314;DHT22;5202;49.138;10.090;2024-03-07T02:57:09;1.70;99.90
10314;DHT22;5202;49.138;10.090;2024-03-07T02:59:39;1.70;99.90
10314;DHT22;5202;49.138;10.090;2024-03-07T03:02:07;1.70;99.90
10314;DHT22;5202;49.138;10.090;2024-03-07T03:04:36;1.60;99.90
10314;DHT22;5202;49.138;10.090;2024-03-07T03:07:12;1.50;99.90
10314;DHT22;5202;49.138;10.090;2024-03-07T03:09:40;1.50;99.90
10314;DHT22;5202;49.138;10.090;2024-03-07T03:12:11;1.40;99.90
10314;DHT22;5202;49.138;10.090;2024-03-07T03:14:40;1.30;99.90
10314;DHT22;5202;49.138;10.090;2024-03-07T03:17:09;1.30;99.90
10314;DHT22;5202;49.138;10.090;2024-03-07T03:19:38;1.40;99.90
10314;DHT22;5202;49.138;10.090;2024-03-07T03:22:06;1.30;99.90
10314;DHT22;5202;49.138;10.090;2024-03-07T03:24:35;1.30;99.90
10314;DHT22;5202;49.138;10.090;2024-03-07T03:27:08;1.30;99.90
10314;DHT22;5202;49.138;10.090;2024-03-07T03:29:38;1.30;99.90
10314;DHT22;5202;49.138;10.090;2024-03-07T03:32:08;1.30;99.90
10314;DHT22;5202;49.138;10.090;2024-03-07T03:34:36;1.30;99.90
10314;DHT22;5202;49.138;10.090;2024-03-07T03:37:04;1.30;99.90
10314;DHT22;5202;49.138;10.090;2024-03-07T03:39:33;1.30;99.90
10314;DHT22;5202;49.138;10.090;2024-03-07T03:42:02;1.30;99.90
10314;DHT22;5202;49.138;10.090;2024-03-07T03:44:32;1.30;99.90
10314;DHT22;5202;49.138;10.090;2024-03-07T03:47:01;1.20;99.90
10314;DHT22;5202;49.138;10.090;2024-03-07T03:49:31;1.20;99.90
10314;DHT22;5202;49.138;10.090;2024-03-07T03:51:59;1.10;99.90
10314;DHT22;5202;49.138;10.090;2024-03-07T03:54:28;1.10;99.90
10314;DHT22;5202;49.138;10.090;2024-03-07T03:56:56;1.10;99.90
10314;DHT22;5202;49.138;10.090;2024-03-07T03:59:26;1.10;99.90
10314;DHT22;5202;49.138;10.090;2024-03-07T04:01:56;1.00;99.90
10314;DHT22;5202;49.138;10.090;2024-03-07T04:04:24;1.00;99.90
10314;DHT22;5202;49.138;10.090;2024-03-07T04:06:53;0.90;99.90
10314;DHT22;5202;49.138;10.090;2024-03-07T04:09:22;0.90;99.90
10314;DHT22;5202;49.138;10.090;2024-03-07T04:11:50;0.80;99.90
10314;DHT22;5202;49.138;10.090;2024-03-07T04:14:18;0.80;99.90
10314;DHT22;5202;49.138;10.090;2024-03-07T04:16:47;0.80;99.90
10314;DHT22;5202;49.138;10.090;2024-03-07T04:19:17;0.90;99.90
10314;DHT22;5202;49.138;10.090;2024-03-07T04:21:47;0.90;99.90
10314;DHT22;5202;49.138;10.090;2024-03-07T04:24:15;0.90;99.90
10314;DHT22;5202;49.138;10.090;2024-03-07T04:26:44;1.00;99.90
10314;DHT22;5202;49.138;10.090;2024-03-07T04:29:12;1.00;99.90
10314;DHT22;5202;49.138;10.090;2024-03-07T04:31:41;1.00;99.90
10314;DHT22;5202;49.138;10.090;2024-03-07T04:34:09;1.00;99.90
10314;DHT22;5202;49.138;10.090;2024-03-07T04:36:39;0.90;99.90
10314;DHT22;5202;49.138;10.090;2024-03-07T04:39:08;0.80;99.90
10314;DHT22;5202;49.138;10.090;2024-03-07T04:41:51;0.80;99.90
10314;DHT22;5202;49.138;10.090;2024-03-07T04:44:24;0.60;99.90
10314;DHT22;5202;49.138;10.090;2024-03-07T04:46:52;0.70;99.90
10314;DHT22;5202;49.138;10.090;2024-03-07T04:49:22;0.70;99.90
10314;DHT22;5202;49.138;10.090;2024-03-07T04:51:53;0.70;99.90
10314;DHT22;5202;49.138;10.090;2024-03-07T04:54:23;0.70;99.90
10314;DHT22;5202;49.138;10.090;2024-03-07T04:56:53;0.70;99.90
10314;DHT22;5202;49.138;10.090;2024-03-07T04:59:22;0.70;99.90
10314;DHT22;5202;49.138;10.090;2024-03-07T05:01:51;0.70;99.90
10314;DHT22;5202;49.138;10.090;2024-03-07T05:04:19;0.60;99.90
10314;DHT22;5202;49.138;10.090;2024-03-07T05:06:53;0.60;99.90
10314;DHT22;5202;49.138;10.090;2024-03-07T05:09:22;0.70;99.90
10314;DHT22;5202;49.138;10.090;2024-03-07T05:11:52;0.60;99.90
10314;DHT22;5202;49.138;10.090;2024-03-07T05:14:21;0.60;99.90
10314;DHT22;5202;49.138;10.090;2024-03-07T05:16:51;0.50;99.90
10314;DHT22;5202;49.138;10.090;2024-03-07T05:19:32;0.50;99.90
10314;DHT22;5202;49.138;10.090;2024-03-07T05:22:02;0.50;99.90
10314;DHT22;5202;49.138;10.090;2024-03-07T05:24:32;0.40;99.90
10314;DHT22;5202;49.138;10.090;2024-03-07T05:27:01;0.40;99.90
10314;DHT22;5202;49.138;10.090;2024-03-07T05:29:29;0.30;99.90
10314;DHT22;5202;49.138;10.090;2024-03-07T05:32:19;0.30;99.90
10314;DHT22;5202;49.138;10.090;2024-03-07T05:34:49;0.40;99.90
10314;DHT22;5202;49.138;10.090;2024-03-07T05:37:19;0.50;99.90
10314;DHT22;5202;49.138;10.090;2024-03-07T05:39:48;0.50;99.90
10314;DHT22;5202;49.138;10.090;2024-03-07T05:42:17;0.50;99.90
10314;DHT22;5202;49.138;10.090;2024-03-07T05:44:45;0.50;99.90
10314;DHT22;5202;49.138;10.090;2024-03-07T05:47:14;0.60;99.90
10314;DHT22;5202;49.138;10.090;2024-03-07T05:49:44;0.60;99.90
10314;DHT22;5202;49.138;10.090;2024-03-07T05:52:12;0.50;99.90
10314;DHT22;5202;49.138;10.090;2024-03-07T05:54:42;0.50;99.90
10314;DHT22;5202;49.138;10.090;2024-03-07T05:57:11;0.60;99.90
10314;DHT22;5202;49.138;10.090;2024-03-07T05:59:40;0.50;99.90
10314;DHT22;5202;49.138;10.090;2024-03-07T06:02:08;0.40;99.90
10314;DHT22;5202;49.138;10.090;2024-03-07T06:04:39;0.40;99.90
10314;DHT22;5202;49.138;10.090;2024-03-07T06:07:13;0.40;99.90
10314;DHT22;5202;49.138;10.090;2024-03-07T06:09:43;0.30;99.90
10314;DHT22;5202;49.138;10.090;2024-03-07T06:12:12;0.40;99.90
10314;DHT22;5202;49.138;10.090;2024-03-07T06:14:52;0.40;99.90
10314;DHT22;5202;49.138;10.090;2024-03-07T06:17:21;0.50;99.90
10314;DHT22;5202;49.138;10.090;2024-03-07T06:19:50;0.40;99.90
10314;DHT22;5202;49.138;10.090;2024-03-07T06:22:18;0.50;99.90
10314;DHT22;5202;49.138;10.090;2024-03-07T06:24:48;0.60;99.90
10314;DHT22;5202;49.138;10.090;2024-03-07T06:27:17;0.60;99.90
10314;DHT22;5202;49.138;10.090;2024-03-07T06:29:54;0.60;99.90
10314;DHT22;5202;49.138;10.090;2024-03-07T06:32:23;0.70;99.90
10314;DHT22;5202;49.138;10.090;2024-03-07T06:34:52;0.70;99.90
10314;DHT22;5202;49.138;10.090;2024-03-07T06:37:20;0.80;99.90
10314;DHT22;5202;49.138;10.090;2024-03-07T06:39:50;0.90;99.90
10314;DHT22;5202;49.138;10.090;2024-03-07T06:42:19;0.90;99.90
10314;DHT22;5202;49.138;10.090;2024-03-07T06:44:48;1.00;99.90
10314;DHT22;5202;49.138;10.090;2024-03-07T06:47:18;0.90;99.90
10314;DHT22;5202;49.138;10.090;2024-03-07T06:49:47;0.90;99.90
10314;DHT22;5202;49.138;10.090;2024-03-07T06:52:15;0.90;99.90
10314;DHT22;5202;49.138;10.090;2024-03-07T06:54:45;0.90;99.90
10314;DHT22;5202;49.138;10.090;2024-03-07T06:57:17;1.00;99.90
10314;DHT22;5202;49.138;10.090;2024-03-07T06:59:46;1.10;99.90
10314;DHT22;5202;49.138;10.090;2024-03-07T07:02:14;1.20;99.90
10314;DHT22;5202;49.138;10.090;2024-03-07T07:04:44;1.30;99.90
10314;DHT22;5202;49.138;10.090;2024-03-07T07:07:14;1.40;99.90
10314;DHT22;5202;49.138;10.090;2024-03-07T07:09:43;1.50;99.90
10314;DHT22;5202;49.138;10.090;2024-03-07T07:12:11;1.60;99.90
10314;DHT22;5202;49.138;10.090;2024-03-07T07:14:43;1.70;99.90
10314;DHT22;5202;49.138;10.090;2024-03-07T07:17:11;1.80;99.90
10314;DHT22;5202;49.138;10.090;2024-03-07T07:19:40;1.90;99.90
10314;DHT22;5202;49.138;10.090;2024-03-07T07:22:09;2.00;99.90
10314;DHT22;5202;49.138;10.090;2024-03-07T07:24:38;2.10;99.90
10314;DHT22;5202;49.138;10.090;2024-03-07T07:27:07;2.20;99.90
10314;DHT22;5202;49.138;10.090;2024-03-07T07:29:35;2.30;99.90
10314;DHT22;5202;49.138;10.090;2024-03-07T07:32:06;2.40;99.90
10314;DHT22;5202;49.138;10.090;2024-03-07T07:34:35;2.40;99.90
10314;DHT22;5202;49.138;10.090;2024-03-07T07:37:03;2.50;99.90
10314;DHT22;5202;49.138;10.090;2024-03-07T07:39:32;2.60;99.90
10314;DHT22;5202;49.138;10.090;2024-03-07T07:42:00;2.70;99.90
10314;DHT22;5202;49.138;10.090;2024-03-07T07:44:28;2.80;99.90
10314;DHT22;5202;49.138;10.090;2024-03-07T07:46:57;2.90;99.90
10314;DHT22;5202;49.138;10.090;2024-03-07T07:49:27;3.00;99.90
10314;DHT22;5202;49.138;10.090;2024-03-07T07:51:55;3.00;99.90
10314;DHT22;5202;49.138;10.090;2024-03-07T07:54:24;3.10;99.90
10314;DHT22;5202;49.138;10.090;2024-03-07T07:56:53;3.10;99.90
10314;DHT22;5202;49.138;10.090;2024-03-07T07:59:22;3.20;99.90
10314;DHT22;5202;49.138;10.090;2024-03-07T08:01:50;3.30;99.90
10314;DHT22;5202;49.138;10.090;2024-03-07T08:04:21;3.40;99.90
10314;DHT22;5202;49.138;10.090;2024-03-07T08:06:51;3.40;99.90
10314;DHT22;5202;49.138;10.090;2024-03-07T08:09:19;3.50;99.90
10314;DHT22;5202;49.138;10.090;2024-03-07T08:11:48;3.70;99.90
10314;DHT22;5202;49.138;10.090;2024-03-07T08:14:18;3.80;99.90
10314;DHT22;5202;49.138;10.090;2024-03-07T08:16:48;3.90;99.90
10314;DHT22;5202;49.138;10.090;2024-03-07T08:19:18;4.10;99.90
10314;DHT22;5202;49.138;10.090;2024-03-07T08:21:46;4.10;99.90
10314;DHT22;5202;49.138;10.090;2024-03-07T08:24:16;4.20;99.90
10314;DHT22;5202;49.138;10.090;2024-03-07T08:26:44;4.30;99.90
10314;DHT22;5202;49.138;10.090;2024-03-07T08:29:13;4.30;99.90
10314;DHT22;5202;49.138;10.090;2024-03-07T08:31:43;4.40;99.90
10314;DHT22;5202;49.138;10.090;2024-03-07T08:34:11;4.40;99.90
10314;DHT22;5202;49.138;10.090;2024-03-07T08:36:40;4.40;99.90
10314;DHT22;5202;49.138;10.090;2024-03-07T08:39:08;4.50;99.90
10314;DHT22;5202;49.138;10.090;2024-03-07T08:41:39;4.50;99.90
10314;DHT22;5202;49.138;10.090;2024-03-07T08:44:09;4.60;99.90
10314;DHT22;5202;49.138;10.090;2024-03-07T08:46:37;4.70;99.90
10314;DHT22;5202;49.138;10.090;2024-03-07T08:49:05;4.80;99.90
10314;DHT22;5202;49.138;10.090;2024-03-07T08:51:33;4.90;99.90
10314;DHT22;5202;49.138;10.090;2024-03-07T08:54:02;5.00;99.90
10314;DHT22;5202;49.138;10.090;2024-03-07T08:56:30;5.00;99.90
10314;DHT22;5202;49.138;10.090;2024-03-07T08:59:01;5.00;99.90
10314;DHT22;5202;49.138;10.090;2024-03-07T09:01:29;5.00;99.90
10314;DHT22;5202;49.138;10.090;2024-03-07T09:04:09;5.00;99.90
10314;DHT22;5202;49.138;10.090;2024-03-07T09:06:38;5.10;99.90
10314;DHT22;5202;49.138;10.090;2024-03-07T09:09:08;5.20;99.90
10314;DHT22;5202;49.138;10.090;2024-03-07T09:11:37;5.30;99.90
10314;DHT22;5202;49.138;10.090;2024-03-07T09:14:07;5.40;99.90
10314;DHT22;5202;49.138;10.090;2024-03-07T09:16:36;5.30;99.90
10314;DHT22;5202;49.138;10.090;2024-03-07T09:19:05;5.30;99.90
10314;DHT22;5202;49.138;10.090;2024-03-07T09:21:34;5.30;99.90
10314;DHT22;5202;49.138;10.090;2024-03-07T09:24:03;5.40;99.90
10314;DHT22;5202;49.138;10.090;2024-03-07T09:26:33;5.60;99.90
10314;DHT22;5202;49.138;10.090;2024-03-07T09:29:02;5.70;99.90
10314;DHT22;5202;49.138;10.090;2024-03-07T09:31:35;5.80;99.90
10314;DHT22;5202;49.138;10.090;2024-03-07T09:34:07;5.80;99.90
10314;DHT22;5202;49.138;10.090;2024-03-07T09:36:35;5.90;99.90
10314;DHT22;5202;49.138;10.090;2024-03-07T09:39:04;5.80;99.90
10314;DHT22;5202;49.138;10.090;2024-03-07T09:41:32;5.80;99.90
10314;DHT22;5202;49.138;10.090;2024-03-07T09:44:01;5.80;99.90
10314;DHT22;5202;49.138;10.090;2024-03-07T09:46:30;5.80;99.90
10314;DHT22;5202;49.138;10.090;2024-03-07T09:49:00;5.90;99.90
10314;DHT22;5202;49.138;10.090;2024-03-07T09:51:29;6.00;99.90
10314;DHT22;5202;49.138;10.090;2024-03-07T09:53:58;6.20;99.90
10314;DHT22;5202;49.138;10.090;2024-03-07T09:56:27;6.30;99.90
10314;DHT22;5202;49.138;10.090;2024-03-07T09:58:58;6.30;99.90
10314;DHT22;5202;49.138;10.090;2024-03-07T10:01:27;6.40;99.90
10314;DHT22;5202;49.138;10.090;2024-03-07T10:04:01;6.50;99.90
10314;DHT22;5202;49.138;10.090;2024-03-07T10:06:38;6.60;99.90
10314;DHT22;5202;49.138;10.090;2024-03-07T10:09:07;6.70;99.90
10314;DHT22;5202;49.138;10.090;2024-03-07T10:11:36;6.80;99.90
10314;DHT22;5202;49.138;10.090;2024-03-07T10:14:04;6.80;99.90
10314;DHT22;5202;49.138;10.090;2024-03-07T10:16:34;6.70;99.90
10314;DHT22;5202;49.138;10.090;2024-03-07T10:19:05;6.80;99.90
10314;DHT22;5202;49.138;10.090;2024-03-07T10:21:35;6.80;99.90
10314;DHT22;5202;49.138;10.090;2024-03-07T10:24:04;6.90;99.90
10314;DHT22;5202;49.138;10.090;2024-03-07T10:26:35;7.00;99.90
10314;DHT22;5202;49.138;10.090;2024-03-07T10:29:05;7.00;99.90
10314;DHT22;5202;49.138;10.090;2024-03-07T10:31:35;6.90;99.90
10314;DHT22;5202;49.138;10.090;2024-03-07T10:34:16;6.90;99.90
10314;DHT22;5202;49.138;10.090;2024-03-07T10:36:45;6.90;99.90
10314;DHT22;5202;49.138;10.090;2024-03-07T10:39:13;6.90;99.90
10314;DHT22;5202;49.138;10.090;2024-03-07T10:41:45;7.00;99.90
10314;DHT22;5202;49.138;10.090;2024-03-07T10:44:20;6.90;99.90
10314;DHT22;5202;49.138;10.090;2024-03-07T10:46:54;6.90;99.90
10314;DHT22;5202;49.138;10.090;2024-03-07T10:49:31;6.90;99.90
10314;DHT22;5202;49.138;10.090;2024-03-07T10:52:04;6.90;99.90
10314;DHT22;5202;49.138;10.090;2024-03-07T10:54:46;6.90;99.90
10314;DHT22;5202;49.138;10.090;2024-03-07T10:57:30;6.80;99.90
10314;DHT22;5202;49.138;10.090;2024-03-07T11:00:04;6.70;99.90
10314;DHT22;5202;49.138;10.090;2024-03-07T11:02:51;6.70;99.90
10314;DHT22;5202;49.138;10.090;2024-03-07T11:05:27;6.70;99.90
10314;DHT22;5202;49.138;10.090;2024-03-07T11:08:03;6.70;99.90
10314;DHT22;5202;49.138;10.090;2024-03-07T11:10:39;6.70;99.90
10314;DHT22;5202;49.138;10.090;2024-03-07T11:13:09;6.80;99.90
10314;DHT22;5202;49.138;10.090;2024-03-07T11:15:42;6.70;99.90
10314;DHT22;5202;49.138;10.090;2024-03-07T11:18:12;6.80;99.90
10314;DHT22;5202;49.138;10.090;2024-03-07T11:20:42;6.70;99.90
10314;DHT22;5202;49.138;10.090;2024-03-07T11:23:26;6.70;99.90
10314;DHT22;5202;49.138;10.090;2024-03-07T11:26:02;6.70;99.90
10314;DHT22;5202;49.138;10.090;2024-03-07T11:28:36;6.60;99.90
10314;DHT22;5202;49.138;10.090;2024-03-07T11:31:14;6.60;99.90
10314;DHT22;5202;49.138;10.090;2024-03-07T11:34:13;6.50;99.90
10314;DHT22;5202;49.138;10.090;2024-03-07T11:36:43;6.50;99.90
10314;DHT22;5202;49.138;10.090;2024-03-07T11:39:39;6.50;99.90
10314;DHT22;5202;49.138;10.090;2024-03-07T11:42:19;6.50;99.90
10314;DHT22;5202;49.138;10.090;2024-03-07T11:44:49;6.70;99.90
10314;DHT22;5202;49.138;10.090;2024-03-07T11:47:18;6.70;99.90
10314;DHT22;5202;49.138;10.090;2024-03-07T11:49:48;6.80;99.90
10314;DHT22;5202;49.138;10.090;2024-03-07T11:52:16;6.80;99.90
10314;DHT22;5202;49.138;10.090;2024-03-07T11:54:45;6.80;99.90
10314;DHT22;5202;49.138;10.090;2024-03-07T11:57:17;6.80;99.90
10314;DHT22;5202;49.138;10.090;2024-03-07T11:59:53;6.90;99.90
10314;DHT22;5202;49.138;10.090;2024-03-07T12:02:22;6.80;99.90
10314;DHT22;5202;49.138;10.090;2024-03-07T12:04:51;6.80;99.90
10314;DHT22;5202;49.138;10.090;2024-03-07T12:07:20;6.90;99.90
10314;DHT22;5202;49.138;10.090;2024-03-07T12:09:50;6.90;99.90
10314;DHT22;5202;49.138;10.090;2024-03-07T12:12:21;6.90;99.90
10314;DHT22;5202;49.138;10.090;2024-03-07T12:14:51;6.90;99.90
10314;DHT22;5202;49.138;10.090;2024-03-07T12:17:21;6.80;99.90
10314;DHT22;5202;49.138;10.090;2024-03-07T12:19:51;6.70;99.90
10314;DHT22;5202;49.138;10.090;2024-03-07T12:22:20;6.70;99.90
10314;DHT22;5202;49.138;10.090;2024-03-07T12:25:00;6.70;99.90
10314;DHT22;5202;49.138;10.090;2024-03-07T12:27:30;6.80;99.90
10314;DHT22;5202;49.138;10.090;2024-03-07T12:29:59;6.70;99.90
10314;DHT22;5202;49.138;10.090;2024-03-07T12:32:34;6.70;99.90
10314;DHT22;5202;49.138;10.090;2024-03-07T12:35:06;6.60;99.90
10314;DHT22;5202;49.138;10.090;2024-03-07T12:37:39;6.60;99.90
10314;DHT22;5202;49.138;10.090;2024-03-07T12:40:11;6.70;99.90
10314;DHT22;5202;49.138;10.090;2024-03-07T12:42:46;6.70;99.90
10314;DHT22;5202;49.138;10.090;2024-03-07T12:45:16;6.70;99.90
10314;DHT22;5202;49.138;10.090;2024-03-07T12:47:46;6.80;99.90
10314;DHT22;5202;49.138;10.090;2024-03-07T12:50:19;6.80;99.90
10314;DHT22;5202;49.138;10.090;2024-03-07T12:52:48;6.80;99.90
10314;DHT22;5202;49.138;10.090;2024-03-07T12:55:18;6.90;99.90
10314;DHT22;5202;49.138;10.090;2024-03-07T12:57:48;6.90;99.90
10314;DHT22;5202;49.138;10.090;2024-03-07T13:00:18;6.90;99.90
10314;DHT22;5202;49.138;10.090;2024-03-07T13:02:47;6.90;99.90
10314;DHT22;5202;49.138;10.090;2024-03-07T13:05:16;6.90;99.90
10314;DHT22;5202;49.138;10.090;2024-03-07T13:07:51;6.90;99.90
10314;DHT22;5202;49.138;10.090;2024-03-07T13:10:20;6.90;99.90
10314;DHT22;5202;49.138;10.090;2024-03-07T13:12:48;6.90;99.90
10314;DHT22;5202;49.138;10.090;2024-03-07T13:15:17;6.90;99.90
10314;DHT22;5202;49.138;10.090;2024-03-07T13:17:48;6.90;99.90
10314;DHT22;5202;49.138;10.090;2024-03-07T13:20:21;7.00;99.90
10314;DHT22;5202;49.138;10.090;2024-03-07T13:22:55;7.00;99.90
10314;DHT22;5202;49.138;10.090;2024-03-07T13:25:24;7.10;99.90
10314;DHT22;5202;49.138;10.090;2024-03-07T13:27:56;7.20;99.90
10314;DHT22;5202;49.138;10.090;2024-03-07T13:30:28;7.10;99.90
10314;DHT22;5202;49.138;10.090;2024-03-07T13:32:57;7.00;99.90
10314;DHT22;5202;49.138;10.090;2024-03-07T13:35:27;7.00;99.90
10314;DHT22;5202;49.138;10.090;2024-03-07T13:37:57;7.10;99.90
10314;DHT22;5202;49.138;10.090;2024-03-07T13:40:26;7.10;99.90
10314;DHT22;5202;49.138;10.090;2024-03-07T13:42:55;7.00;99.90
10314;DHT22;5202;49.138;10.090;2024-03-07T13:45:26;7.00;99.90
10314;DHT22;5202;49.138;10.090;2024-03-07T13:47:57;7.00;99.90
10314;DHT22;5202;49.138;10.090;2024-03-07T13:50:28;7.00;99.90
10314;DHT22;5202;49.138;10.090;2024-03-07T13:53:20;7.00;99.90
10314;DHT22;5202;49.138;10.090;2024-03-07T13:56:27;7.00;99.90
10314;DHT22;5202;49.138;10.090;2024-03-07T14:05:57;7.10;99.90
10314;DHT22;5202;49.138;10.090;2024-03-07T14:09:17;7.10;99.90
10314;DHT22;5202;49.138;10.090;2024-03-07T14:12:28;7.20;99.90
10314;DHT22;5202;49.138;10.090;2024-03-07T14:15:38;7.20;99.90
10314;DHT22;5202;49.138;10.090;2024-03-07T14:19:05;7.30;99.90
10314;DHT22;5202;49.138;10.090;2024-03-07T14:22:02;7.20;99.90
10314;DHT22;5202;49.138;10.090;2024-03-07T14:25:07;7.40;99.90
10314;DHT22;5202;49.138;10.090;2024-03-07T14:28:10;7.50;99.90
10314;DHT22;5202;49.138;10.090;2024-03-07T14:30:48;7.40;99.90
10314;DHT22;5202;49.138;10.090;2024-03-07T14:33:27;7.50;99.90
10314;DHT22;5202;49.138;10.090;2024-03-07T14:36:00;7.30;99.90
10314;DHT22;5202;49.138;10.090;2024-03-07T14:38:44;7.30;99.70
10314;DHT22;5202;49.138;10.090;2024-03-07T14:41:20;7.30;99.30
10314;DHT22;5202;49.138;10.090;2024-03-07T14:43:52;7.20;99.10
10314;DHT22;5202;49.138;10.090;2024-03-07T14:46:21;7.10;99.00
10314;DHT22;5202;49.138;10.090;2024-03-07T14:48:50;7.10;99.00
10314;DHT22;5202;49.138;10.090;2024-03-07T14:51:18;7.10;98.80
10314;DHT22;5202;49.138;10.090;2024-03-07T14:53:47;7.20;99.00
10314;DHT22;5202;49.138;10.090;2024-03-07T14:56:16;7.20;99.30
10314;DHT22;5202;49.138;10.090;2024-03-07T14:58:48;7.30;99.30
10314;DHT22;5202;49.138;10.090;2024-03-07T15:01:17;7.40;99.90
10314;DHT22;5202;49.138;10.090;2024-03-07T15:03:48;7.60;98.80
10314;DHT22;5202;49.138;10.090;2024-03-07T15:06:21;7.60;98.60
10314;DHT22;5202;49.138;10.090;2024-03-07T15:08:50;7.60;99.10
10314;DHT22;5202;49.138;10.090;2024-03-07T15:11:26;7.60;98.70
10314;DHT22;5202;49.138;10.090;2024-03-07T15:13:59;7.50;98.90
10314;DHT22;5202;49.138;10.090;2024-03-07T15:16:28;7.40;99.00
10314;DHT22;5202;49.138;10.090;2024-03-07T15:19:03;7.40;99.20
10314;DHT22;5202;49.138;10.090;2024-03-07T15:21:32;7.20;99.40
10314;DHT22;5202;49.138;10.090;2024-03-07T15:24:00;7.20;99.90
10314;DHT22;5202;49.138;10.090;2024-03-07T15:26:30;7.20;99.90
10314;DHT22;5202;49.138;10.090;2024-03-07T15:29:01;7.10;99.90
10314;DHT22;5202;49.138;10.090;2024-03-07T15:31:29;6.90;99.90
10314;DHT22;5202;49.138;10.090;2024-03-07T15:33:59;6.90;99.90
10314;DHT22;5202;49.138;10.090;2024-03-07T15:36:27;6.80;99.90
10314;DHT22;5202;49.138;10.090;2024-03-07T15:38:56;6.70;99.90
10314;DHT22;5202;49.138;10.090;2024-03-07T15:41:30;6.70;99.90
10314;DHT22;5202;49.138;10.090;2024-03-07T15:44:01;6.60;99.90
10314;DHT22;5202;49.138;10.090;2024-03-07T15:46:30;6.60;99.90
10314;DHT22;5202;49.138;10.090;2024-03-07T15:48:58;6.60;99.90
10314;DHT22;5202;49.138;10.090;2024-03-07T15:51:27;6.60;99.90
10314;DHT22;5202;49.138;10.090;2024-03-07T15:53:55;6.60;99.90
10314;DHT22;5202;49.138;10.090;2024-03-07T15:56:24;6.60;99.90
10314;DHT22;5202;49.138;10.090;2024-03-07T15:58:53;6.60;99.90
10314;DHT22;5202;49.138;10.090;2024-03-07T16:01:23;6.60;99.90
10314;DHT22;5202;49.138;10.090;2024-03-07T16:03:51;6.60;99.90
10314;DHT22;5202;49.138;10.090;2024-03-07T16:06:19;6.60;99.90
10314;DHT22;5202;49.138;10.090;2024-03-07T16:08:48;6.60;99.90
10314;DHT22;5202;49.138;10.090;2024-03-07T16:11:19;6.60;99.90
10314;DHT22;5202;49.138;10.090;2024-03-07T16:13:51;6.50;99.90
10314;DHT22;5202;49.138;10.090;2024-03-07T16:16:20;6.50;99.90